TimeEST,TemperatureF,Dew PointF,Humidity,Sea Level PressureIn,VisibilityMPH,Wind Direction,Wind SpeedMPH,Gust SpeedMPH,PrecipitationIn,Events,Conditions,WindDirDegrees,DateUTC
12:56 AM,32.0,28.0,85,30.21,10.0,East,5.8,-,N/A,,Clear,80,2012-11-20 05:56:00
1:56 AM,32.0,28.0,85,30.19,8.0,East,5.8,-,N/A,,Clear,90,2012-11-20 06:56:00
2:56 AM,32.0,28.0,85,30.19,9.0,ENE,5.8,-,N/A,,Clear,70,2012-11-20 07:56:00
3:56 AM,32.0,28.0,85,30.18,8.0,NE,3.5,-,N/A,,Clear,50,2012-11-20 08:56:00
4:56 AM,32.0,28.0,85,30.18,10.0,East,6.9,-,N/A,,Clear,90,2012-11-20 09:56:00
5:56 AM,30.9,27.0,85,30.18,7.0,Calm,Calm,-,N/A,,Clear,0,2012-11-20 10:56:00
6:56 AM,28.0,25.0,88,30.18,6.0,Calm,Calm,-,N/A,,Clear,0,2012-11-20 11:56:00
7:56 AM,28.9,27.0,92,30.20,5.0,Calm,Calm,-,N/A,,Clear,0,2012-11-20 12:56:00
8:56 AM,36.0,30.9,82,30.19,7.0,East,4.6,-,N/A,,Clear,90,2012-11-20 13:56:00
9:56 AM,37.0,30.9,79,30.19,10.0,Calm,Calm,-,N/A,,Clear,0,2012-11-20 14:56:00
10:56 AM,39.9,32.0,73,30.18,10.0,Calm,Calm,-,N/A,,Clear,0,2012-11-20 15:56:00
11:56 AM,44.1,33.1,65,30.15,10.0,Calm,Calm,-,N/A,,Clear,0,2012-11-20 16:56:00
12:56 PM,48.0,30.0,50,30.12,10.0,Calm,Calm,-,N/A,,Clear,0,2012-11-20 17:56:00
1:56 PM,50.0,26.1,39,30.10,10.0,NNW,5.8,-,N/A,,Clear,340,2012-11-20 18:56:00
3:56 PM,50.0,28.9,44,30.10,10.0,Calm,Calm,-,N/A,,Partly Cloudy,0,2012-11-20 20:56:00
4:56 PM,48.0,28.0,46,30.12,10.0,Calm,Calm,-,N/A,,Clear,0,2012-11-20 21:56:00
5:56 PM,46.9,27.0,46,30.12,10.0,North,3.5,-,N/A,,Mostly Cloudy,10,2012-11-20 22:56:00
6:56 PM,44.1,28.0,53,30.14,10.0,Calm,Calm,-,N/A,,Overcast,0,2012-11-20 23:56:00
7:56 PM,43.0,28.0,56,30.16,10.0,West,3.5,-,N/A,,Partly Cloudy,280,2012-11-21 00:56:00
8:56 PM,43.0,28.0,56,30.15,10.0,Calm,Calm,-,N/A,,Clear,0,2012-11-21 01:56:00
9:56 PM,43.0,27.0,53,30.15,10.0,Calm,Calm,-,N/A,,Clear,0,2012-11-21 02:56:00
10:56 PM,37.0,27.0,67,30.15,10.0,Calm,Calm,-,N/A,,Clear,0,2012-11-21 03:56:00
11:56 PM,39.0,27.0,62,30.15,10.0,Calm,Calm,-,N/A,,Clear,0,2012-11-21 04:56:00